Yates, Missouri
Current Conditions -  °F | °C
As of 8:55 AM on Thursday 30 Oct 2014 (Local Time) from KVER Reporting Station
Light Rain Light Rain  
Wind Chill: 45°   Ceiling: 7000
Heat Index: 45°   Visibility: 10mi
Dew Point: 37°   Wind: 3mph
Humidity: 74%   Direction: 190°S
Pressure: 30.09"   Gusts: NA
Location:  39.3081°N, 92.5236°W
Report Text: KVER 301355Z AUTO 19003KT 10SM -RA SCT055 BKN070 OVC095 07/03 A3009 RMK AO2 T00710027
Loading
Personal Weather Stations






























Interactive Weather Map
Tropical Storm Tracking
New forecast layout! Learn more

10-Day Weather Forecast

Advertisements
Track Severe Weather on mobile